Time;durP1;ratioP1;P1;durP2;ratioP2;P2;SDS_P1;SDS_P2;PMS_P1;PMS_P2;Temp;Humidity;BMP_temperature;BMP_pressure;BME280_temperature;BME280_humidity;BME280_pressure;Samples;Min_cycle;Max_cycle;Signal;HPM_P1;HPM_P2
2021/06/06 00:01:02;;;;;;;9.63;6.75;;;;;;;20.27;68.26;100433.88;5071313;28;20028;-65
2021/06/06 00:03:34;;;;;;;10.43;6.43;;;;;;;20.28;68.30;100423.25;5072799;28;20020;-69
2021/06/06 00:06:04;;;;;;;11.40;6.10;;;;;;;20.24;68.18;100417.69;5075404;28;20107;-68
2021/06/06 00:08:30;;;;;;;9.55;6.13;;;;;;;20.18;68.53;100413.84;5075324;28;20367;-67
2021/06/06 00:11:00;;;;;;;9.85;6.03;;;;;;;20.12;68.45;100410.03;5075213;28;20029;-70
2021/06/06 00:13:27;;;;;;;10.80;7.10;;;;;;;20.11;68.86;100416.19;5074150;28;20025;-69
2021/06/06 00:15:52;;;;;;;9.32;6.93;;;;;;;20.09;68.71;100425.22;5075028;28;20036;-68
2021/06/06 00:18:18;;;;;;;8.82;6.50;;;;;;;20.08;68.59;100417.94;5074145;28;20024;-69
2021/06/06 00:20:44;;;;;;;13.45;6.90;;;;;;;20.09;69.60;100410.97;5074997;28;20029;-65
2021/06/06 00:23:10;;;;;;;12.02;6.88;;;;;;;20.12;69.46;100409.22;5075238;28;20032;-67
2021/06/06 00:25:37;;;;;;;11.05;6.45;;;;;;;20.14;69.55;100406.69;5075063;28;20028;-67
2021/06/06 00:28:02;;;;;;;7.10;6.25;;;;;;;20.06;69.49;100404.13;5075334;28;20021;-66
2021/06/06 00:30:28;;;;;;;7.57;6.70;;;;;;;20.01;69.88;100410.47;5074845;28;20082;-65
2021/06/06 00:32:53;;;;;;;9.13;6.65;;;;;;;19.97;69.84;100409.78;5074987;28;20077;-68
2021/06/06 00:35:19;;;;;;;9.93;7.38;;;;;;;19.95;70.31;100417.22;5084566;28;20032;-69
2021/06/06 00:37:45;;;;;;;10.90;6.82;;;;;;;19.97;70.46;100412.63;5077956;28;20041;-66
2021/06/06 00:40:13;;;;;;;9.27;6.75;;;;;;;19.95;70.29;100417.22;5075127;28;20407;-67
2021/06/06 00:42:39;;;;;;;8.45;6.70;;;;;;;19.93;70.41;100416.88;5074709;28;20052;-68
2021/06/06 00:45:13;;;;;;;9.90;7.22;;;;;;;19.93;70.71;100400.56;5074871;28;20115;-69
2021/06/06 00:47:39;;;;;;;8.27;6.72;;;;;;;19.87;70.26;100390.22;5074804;28;20021;-68
2021/06/06 00:50:08;;;;;;;10.70;6.68;;;;;;;19.79;71.00;100384.03;5074782;28;20013;-66
2021/06/06 00:52:36;;;;;;;11.07;7.40;;;;;;;19.79;71.13;100377.53;5075001;28;20070;-66
2021/06/06 00:55:06;;;;;;;11.07;7.28;;;;;;;19.75;71.12;100383.38;5073630;28;20052;-66
2021/06/06 00:57:34;;;;;;;9.95;6.93;;;;;;;19.70;71.13;100370.47;5074858;28;20024;-65
2021/06/06 01:00:09;;;;;;;11.48;7.10;;;;;;;19.66;71.19;100360.47;5074491;28;20484;-67
2021/06/06 01:02:34;;;;;;;10.23;7.30;;;;;;;19.61;71.27;100366.78;5075190;28;20029;-67
2021/06/06 01:05:00;;;;;;;11.77;7.57;;;;;;;19.56;71.51;100361.69;5076246;28;20047;-65
2021/06/06 01:07:25;;;;;;;13.02;6.40;;;;;;;19.55;71.04;100368.66;5078546;28;20028;-65
2021/06/06 01:09:51;;;;;;;8.60;6.93;;;;;;;19.54;71.46;100362.16;5077974;28;20159;-66
2021/06/06 01:12:23;;;;;;;7.28;6.50;;;;;;;19.50;71.11;100364.31;5078008;28;20316;-66
2021/06/06 01:14:58;;;;;;;8.77;6.82;;;;;;;19.45;70.70;100362.09;5078223;28;20062;-65
2021/06/06 01:17:51;;;;;;;7.55;6.72;;;;;;;19.45;71.19;100354.31;5078162;28;20025;-68
2021/06/06 01:20:16;;;;;;;9.43;6.45;;;;;;;19.45;70.42;100351.47;5050482;28;20056;-68
2021/06/06 01:23:03;;;;;;;11.45;7.45;;;;;;;19.44;71.08;100344.16;5077808;28;20028;-67
2021/06/06 01:25:35;;;;;;;8.95;6.30;;;;;;;19.44;71.05;100347.00;5078185;28;20024;-68
2021/06/06 01:28:03;;;;;;;8.02;6.97;;;;;;;19.41;71.14;100335.75;5077584;28;20025;-64
2021/06/06 01:30:38;;;;;;;7.90;6.45;;;;;;;19.41;70.66;100330.03;5077875;28;20025;-66
2021/06/06 01:33:11;;;;;;;8.45;6.88;;;;;;;19.40;71.07;100328.44;5077734;28;20017;-65
2021/06/06 01:35:44;;;;;;;8.15;6.85;;;;;;;19.42;71.14;100334.47;5089982;28;20020;-66
2021/06/06 01:38:14;;;;;;;7.18;6.30;;;;;;;19.42;71.31;100332.44;5064198;28;20049;-63
2021/06/06 01:40:43;;;;;;;10.85;7.68;;;;;;;19.39;71.55;100319.09;5077111;28;20032;-65
2021/06/06 01:43:13;;;;;;;8.38;7.38;;;;;;;19.36;71.33;100327.78;5076057;28;20016;-64
2021/06/06 01:45:56;;;;;;;8.88;7.03;;;;;;;19.33;70.92;100326.69;5077749;28;20025;-65
2021/06/06 01:48:22;;;;;;;8.82;7.18;;;;;;;19.33;71.29;100328.72;5077730;28;20032;-64
2021/06/06 01:50:56;;;;;;;8.65;6.63;;;;;;;19.34;71.62;100321.78;5077461;28;20055;-64
2021/06/06 01:53:23;;;;;;;8.95;7.05;;;;;;;19.31;71.72;100320.66;5077391;28;20025;-63
2021/06/06 01:55:53;;;;;;;11.38;7.82;;;;;;;19.28;71.90;100324.44;5076129;28;20412;-64
2021/06/06 01:58:20;;;;;;;9.00;7.03;;;;;;;19.25;71.94;100319.66;5077331;28;20016;-64
2021/06/06 02:00:51;;;;;;;8.38;7.22;;;;;;;19.22;72.08;100320.59;5077212;28;20021;-64
2021/06/06 02:03:17;;;;;;;10.10;7.18;;;;;;;19.17;72.22;100321.16;5077270;28;20025;-66
2021/06/06 02:05:43;;;;;;;8.05;7.07;;;;;;;19.13;72.49;100314.81;5077200;28;20032;-64
2021/06/06 02:08:12;;;;;;;13.68;7.28;;;;;;;19.11;72.51;100320.19;5075925;28;20024;-63
2021/06/06 02:10:53;;;;;;;8.40;7.30;;;;;;;19.08;72.55;100329.66;5077184;28;20028;-63
2021/06/06 02:13:29;;;;;;;10.88;7.65;;;;;;;19.07;72.68;100325.22;5076897;28;20047;-63
2021/06/06 02:16:00;;;;;;;12.25;7.95;;;;;;;19.07;72.79;100325.22;5076583;28;20028;-64
2021/06/06 02:18:27;;;;;;;12.60;7.23;;;;;;;19.06;72.66;100324.41;5076774;28;20366;-63
2021/06/06 02:20:53;;;;;;;7.82;7.00;;;;;;;19.04;72.94;100326.16;5076935;28;20471;-63
2021/06/06 02:23:28;;;;;;;11.75;7.82;;;;;;;19.03;73.13;100327.41;5077005;28;20036;-63
2021/06/06 02:26:02;;;;;;;13.43;7.05;;;;;;;18.98;72.97;100331.66;5076395;28;20032;-64
2021/06/06 02:28:35;;;;;;;10.43;7.40;;;;;;;18.94;73.70;100333.81;5076769;28;20032;-64
2021/06/06 02:31:27;;;;;;;10.65;7.78;;;;;;;18.92;73.55;100332.69;5076426;28;20025;-63
2021/06/06 02:34:01;;;;;;;9.05;7.30;;;;;;;18.90;73.51;100333.16;5075622;28;20054;-64
2021/06/06 02:36:29;;;;;;;9.50;7.45;;;;;;;18.89;73.73;100330.75;5089617;28;20423;-64
2021/06/06 02:39:09;;;;;;;9.25;7.72;;;;;;;18.91;73.86;100336.81;5076440;28;20040;-63
2021/06/06 02:42:06;;;;;;;12.37;7.80;;;;;;;18.91;73.51;100339.66;5076493;28;20423;-62
2021/06/06 02:44:44;;;;;;;10.73;7.78;;;;;;;18.90;73.58;100326.66;5063119;28;20351;-64
2021/06/06 02:47:11;;;;;;;9.68;7.40;;;;;;;18.89;73.52;100333.59;5076456;28;20477;-62
2021/06/06 02:49:40;;;;;;;11.52;8.30;;;;;;;18.89;73.58;100330.75;5076291;28;20071;-63
2021/06/06 02:52:13;;;;;;;11.45;7.57;;;;;;;18.89;74.27;100330.75;5076383;28;20300;-63
2021/06/06 02:55:00;;;;;;;9.32;8.25;;;;;;;18.85;74.07;100330.88;5076039;28;20040;-63
2021/06/06 02:57:29;;;;;;;12.15;7.90;;;;;;;18.81;74.13;100324.53;5076160;28;20043;-63
2021/06/06 03:00:06;;;;;;;12.07;8.40;;;;;;;18.80;74.42;100332.28;5076025;28;20016;-63
2021/06/06 03:02:38;;;;;;;11.38;8.82;;;;;;;18.79;74.80;100347.75;5075929;28;20025;-62
2021/06/06 03:05:07;;;;;;;9.05;7.20;;;;;;;18.79;74.85;100336.38;5075929;28;20027;-63
2021/06/06 03:07:42;;;;;;;8.15;7.28;;;;;;;18.78;75.09;100349.03;5076178;28;20029;-62
2021/06/06 03:10:08;;;;;;;13.43;7.68;;;;;;;18.78;74.76;100349.03;5075294;28;20024;-63
2021/06/06 03:12:36;;;;;;;8.75;7.50;;;;;;;18.79;74.73;100352.66;5075966;28;20055;-63
2021/06/06 03:15:06;;;;;;;10.30;7.53;;;;;;;18.76;75.03;100357.22;5075744;28;20020;-63
2021/06/06 03:17:35;;;;;;;15.63;8.10;;;;;;;18.75;75.40;100349.94;5075846;28;20108;-63
2021/06/06 03:20:11;;;;;;;14.32;8.93;;;;;;;18.74;75.54;100365.44;5075338;28;20040;-63
2021/06/06 03:22:40;;;;;;;11.18;8.90;;;;;;;18.74;75.50;100359.75;5076090;28;20316;-64
2021/06/06 03:25:24;;;;;;;11.77;7.90;;;;;;;18.75;75.96;100349.94;5075569;28;20060;-64
2021/06/06 03:27:49;;;;;;;12.57;9.07;;;;;;;18.76;76.17;100351.53;5074892;28;20423;-63
2021/06/06 03:30:14;;;;;;;9.07;8.13;;;;;;;18.73;76.36;100352.47;5075531;28;20108;-63
2021/06/06 03:32:42;;;;;;;11.73;8.80;;;;;;;18.73;76.17;100352.47;5075854;28;20085;-64
2021/06/06 03:35:10;;;;;;;12.32;8.73;;;;;;;18.71;76.24;100351.34;5082170;28;20263;-63
2021/06/06 03:37:36;;;;;;;10.20;8.38;;;;;;;18.67;76.44;100353.50;5075532;28;20081;-65
2021/06/06 03:40:04;;;;;;;12.82;8.27;;;;;;;18.70;76.67;100358.28;5075721;28;20104;-65
2021/06/06 03:42:30;;;;;;;12.85;9.05;;;;;;;18.70;76.59;100352.59;5075548;28;20107;-67
2021/06/06 03:44:56;;;;;;;11.02;8.50;;;;;;;18.71;76.44;100354.19;5075336;28;20407;-65
2021/06/06 03:47:21;;;;;;;15.07;9.13;;;;;;;18.70;76.57;100359.06;5075368;28;20028;-66
2021/06/06 03:49:47;;;;;;;15.98;8.95;;;;;;;18.70;76.54;100353.38;5075737;28;20021;-68
2021/06/06 03:52:12;;;;;;;10.57;8.85;;;;;;;18.74;76.59;100361.78;5074014;28;20358;-65
2021/06/06 03:54:37;;;;;;;11.13;8.40;;;;;;;18.71;76.38;100366.38;5061465;28;20020;-67
2021/06/06 03:57:04;;;;;;;13.38;9.07;;;;;;;18.74;76.79;100371.13;5075786;28;20043;-66
2021/06/06 03:59:29;;;;;;;11.43;8.52;;;;;;;18.76;76.41;100368.63;5075500;28;20047;-66
2021/06/06 04:01:55;;;;;;;10.05;8.98;;;;;;;18.75;76.21;100372.72;5075339;28;20032;-68
2021/06/06 04:04:20;;;;;;;12.00;8.55;;;;;;;18.73;75.82;100375.25;5075339;28;20031;-64
2021/06/06 04:06:46;;;;;;;8.43;7.57;;;;;;;18.72;76.43;100379.34;5075069;28;20028;-66
2021/06/06 04:09:13;;;;;;;11.48;8.20;;;;;;;18.73;76.06;100385.84;5075271;28;20461;-66
2021/06/06 04:11:39;;;;;;;11.52;8.40;;;;;;;18.74;76.46;100388.22;5075396;28;20024;-68
2021/06/06 04:14:06;;;;;;;9.25;8.35;;;;;;;18.73;76.01;100394.38;5075303;28;20082;-68
2021/06/06 04:16:32;;;;;;;8.52;7.63;;;;;;;18.68;76.05;100401.44;5075074;28;20045;-65
2021/06/06 04:18:58;;;;;;;12.38;8.65;;;;;;;18.64;76.29;100397.94;5075291;28;20073;-68
2021/06/06 04:21:27;;;;;;;9.65;8.25;;;;;;;18.63;76.41;100402.03;5075190;28;20021;-65
2021/06/06 04:23:52;;;;;;;10.55;7.40;;;;;;;18.64;75.84;100400.78;5074973;28;20021;-65
2021/06/06 04:26:19;;;;;;;12.98;7.63;;;;;;;18.65;76.28;100396.69;5075066;28;20032;-65
2021/06/06 04:28:45;;;;;;;14.25;10.15;;;;;;;18.67;76.08;100397.00;5075394;28;20025;-69
2021/06/06 04:31:11;;;;;;;12.32;9.57;;;;;;;18.70;76.12;100398.94;5073979;28;20032;-65
2021/06/06 04:33:38;;;;;;;12.05;8.23;;;;;;;18.69;75.66;100400.19;5075389;28;20016;-64
2021/06/06 04:36:04;;;;;;;10.88;7.70;;;;;;;18.69;75.52;100405.88;5079507;28;20028;-65
2021/06/06 04:38:30;;;;;;;9.13;8.23;;;;;;;18.66;75.50;100412.50;5074532;28;20048;-67
2021/06/06 04:40:59;;;;;;;9.77;7.65;;;;;;;18.64;75.47;100409.31;5079187;28;20048;-67
2021/06/06 04:43:24;;;;;;;8.80;7.60;;;;;;;18.63;75.65;100409.78;5077642;28;20123;-66
2021/06/06 04:45:50;;;;;;;12.95;8.10;;;;;;;18.64;75.77;100417.84;5078684;28;20113;-68
2021/06/06 04:48:43;;;;;;;10.18;7.53;;;;;;;18.65;76.62;100413.75;5078875;28;20036;-68
2021/06/06 04:51:18;;;;;;;10.90;8.02;;;;;;;18.67;76.58;100410.44;5067839;28;20017;-68
2021/06/06 04:53:43;;;;;;;11.48;8.77;;;;;;;18.69;76.95;100410.78;5078411;28;20099;-66
2021/06/06 04:56:12;;;;;;;15.82;8.63;;;;;;;18.72;77.23;100416.34;5078515;28;20112;-68
2021/06/06 04:58:37;;;;;;;12.15;8.63;;;;;;;18.76;77.26;100414.19;5078547;28;20024;-64
2021/06/06 05:01:03;;;;;;;11.65;9.02;;;;;;;18.78;77.07;100416.56;5078228;28;20066;-67
2021/06/06 05:03:28;;;;;;;10.55;8.88;;;;;;;18.82;77.14;100409.50;5078609;28;20020;-65
2021/06/06 05:05:53;;;;;;;13.77;8.95;;;;;;;18.87;76.88;100401.63;5077846;28;20036;-64
2021/06/06 05:08:22;;;;;;;9.98;8.13;;;;;;;18.87;77.40;100407.31;5077427;28;20024;-64
2021/06/06 05:10:47;;;;;;;13.55;8.93;;;;;;;18.93;76.89;100405.50;5078143;28;20111;-65
2021/06/06 05:13:14;;;;;;;11.80;8.68;;;;;;;18.94;76.77;100410.72;5077032;28;20051;-65
2021/06/06 05:15:40;;;;;;;13.05;8.70;;;;;;;19.00;76.71;100416.63;5078334;28;20024;-63
2021/06/06 05:18:06;;;;;;;9.43;7.47;;;;;;;18.99;76.38;100417.88;5078266;28;20026;-62
2021/06/06 05:20:38;;;;;;;16.75;8.77;;;;;;;19.08;75.32;100430.16;5077965;28;20021;-63
2021/06/06 05:23:03;;;;;;;;;;;;;;;19.10;74.92;100433.34;5078668;28;20075;-62
2021/06/06 05:25:29;;;;;;;9.55;7.97;;;;;;;19.11;74.96;100436.97;5078055;28;20380;-62
2021/06/06 05:27:54;;;;;;;15.77;8.27;;;;;;;19.12;74.63;100435.72;5077815;28;20074;-63
2021/06/06 05:30:25;;;;;;;15.63;8.35;;;;;;;19.19;75.42;100432.66;5074747;28;20117;-62
2021/06/06 05:32:51;;;;;;;10.77;8.55;;;;;;;19.23;74.57;100441.84;5076431;28;20431;-63
2021/06/06 05:35:17;;;;;;;10.65;7.00;;;;;;;19.27;73.90;100438.88;5075022;28;20025;-64
2021/06/06 05:37:43;;;;;;;14.57;8.00;;;;;;;19.31;73.65;100442.38;5067386;28;20084;-63
2021/06/06 05:40:09;;;;;;;11.90;7.28;;;;;;;19.30;73.33;100438.75;5074229;28;20051;-64
2021/06/06 05:42:35;;;;;;;10.93;8.32;;;;;;;19.29;73.80;100434.31;5077876;28;20032;-66
2021/06/06 05:45:00;;;;;;;11.13;7.50;;;;;;;19.32;72.11;100433.38;5076424;28;20317;-64
2021/06/06 05:47:26;;;;;;;6.85;6.15;;;;;;;19.32;71.92;100439.06;5077924;28;20031;-64
2021/06/06 05:49:51;;;;;;;8.82;6.47;;;;;;;19.35;70.96;100441.00;5071604;28;20021;-64
2021/06/06 05:52:17;;;;;;;8.70;7.18;;;;;;;19.29;72.19;100440.00;5070493;28;20056;-67
2021/06/06 05:54:42;;;;;;;8.20;6.38;;;;;;;19.30;71.58;100433.03;5077909;28;20039;-69
2021/06/06 05:57:08;;;;;;;9.30;6.03;;;;;;;19.32;72.25;100432.59;5073124;28;20077;-69
2021/06/06 05:59:33;;;;;;;12.45;6.35;;;;;;;19.33;72.27;100434.19;5069783;28;20017;-67
2021/06/06 06:01:59;;;;;;;10.50;6.30;;;;;;;19.38;71.79;100436.44;5073249;28;20297;-66
2021/06/06 06:04:24;;;;;;;8.70;6.35;;;;;;;19.41;71.40;100436.28;5069964;28;20320;-68
2021/06/06 06:06:49;;;;;;;10.35;6.18;;;;;;;19.43;71.27;100441.53;5070585;28;20753;-66
2021/06/06 06:09:15;;;;;;;7.28;5.55;;;;;;;19.42;71.18;100435.03;5067726;28;20032;-65
2021/06/06 06:11:40;;;;;;;8.20;6.40;;;;;;;19.51;70.78;100434.34;5073701;28;20035;-69
2021/06/06 06:14:05;;;;;;;7.53;5.50;;;;;;;19.55;70.57;100437.06;5067350;28;20027;-64
2021/06/06 06:16:36;;;;;;;7.72;5.60;;;;;;;19.58;71.12;100439.78;5057919;28;20033;-65
2021/06/06 06:19:02;;;;;;;6.70;5.72;;;;;;;19.62;70.80;100443.31;5060580;28;20021;-66
2021/06/06 06:21:29;;;;;;;10.05;5.75;;;;;;;19.68;70.46;100446.34;5063423;28;20107;-64
2021/06/06 06:23:55;;;;;;;6.65;5.10;;;;;;;19.68;71.13;100446.34;5057686;28;20017;-63
2021/06/06 06:26:22;;;;;;;6.95;5.60;;;;;;;19.77;69.77;100446.44;5057972;28;20051;-65
2021/06/06 06:28:47;;;;;;;8.95;5.00;;;;;;;19.79;68.62;100448.81;5057397;28;20048;-63
2021/06/06 06:31:15;;;;;;;6.88;5.30;;;;;;;19.82;69.09;100447.88;5056347;28;20107;-65
2021/06/06 06:33:41;;;;;;;6.78;4.53;;;;;;;19.83;68.80;100460.88;5059068;28;20032;-63
2021/06/06 06:36:07;;;;;;;9.05;4.88;;;;;;;19.83;69.73;100450.28;5058771;28;20021;-64
2021/06/06 06:38:33;;;;;;;9.38;5.00;;;;;;;19.86;69.12;100449.34;5059972;28;20072;-64
2021/06/06 06:41:00;;;;;;;6.93;5.35;;;;;;;19.92;69.43;100449.53;5057852;28;20406;-65
2021/06/06 06:43:25;;;;;;;6.68;5.22;;;;;;;19.96;69.24;100445.28;5062286;28;20055;-67
2021/06/06 06:45:50;;;;;;;6.35;5.00;;;;;;;20.05;68.64;100450.25;5059124;28;20404;-63
2021/06/06 06:48:18;;;;;;;5.93;4.88;;;;;;;20.09;67.81;100442.34;5056646;28;20021;-70
2021/06/06 06:50:45;;;;;;;7.25;4.80;;;;;;;20.13;67.96;100439.34;5056894;28;20029;-66
2021/06/06 06:53:11;;;;;;;5.55;4.78;;;;;;;20.15;68.60;100436.81;5064616;28;20307;-67
2021/06/06 06:55:36;;;;;;;6.00;4.50;;;;;;;20.22;67.92;100439.38;5057509;28;20111;-65
2021/06/06 06:58:04;;;;;;;7.70;4.10;;;;;;;20.31;67.68;100439.44;5056253;28;20029;-65
2021/06/06 07:00:34;;;;;;;4.10;3.70;;;;;;;20.39;66.32;100440.75;5063830;28;20294;-70
2021/06/06 07:03:01;;;;;;;7.77;3.60;;;;;;;20.48;66.05;100437.94;5064650;28;20033;-66
2021/06/06 07:05:26;;;;;;;5.95;3.30;;;;;;;20.55;65.52;100440.53;5060831;28;20017;-63
2021/06/06 07:07:52;;;;;;;3.78;3.35;;;;;;;20.62;64.71;100442.28;5057733;28;20096;-64
2021/06/06 07:10:22;;;;;;;5.03;3.65;;;;;;;20.69;64.15;100439.13;5056064;28;21115;-64
2021/06/06 07:12:47;;;;;;;6.97;3.33;;;;;;;20.75;64.45;100430.72;5058094;28;20021;-66
2021/06/06 07:15:14;;;;;;;4.35;3.13;;;;;;;20.85;63.76;100423.78;5057709;28;20126;-68
2021/06/06 07:17:39;;;;;;;7.30;3.40;;;;;;;20.99;64.92;100429.69;5056586;28;20372;-64
2021/06/06 07:20:07;;;;;;;4.05;3.60;;;;;;;21.09;63.54;100424.78;5071931;28;20039;-64
2021/06/06 07:22:34;;;;;;;7.10;3.22;;;;;;;21.21;62.29;100425.91;5066380;28;20099;-69
2021/06/06 07:25:00;;;;;;;3.75;3.10;;;;;;;21.33;62.25;100415.59;5064479;28;20029;-66
2021/06/06 07:27:25;;;;;;;4.18;3.10;;;;;;;21.46;61.90;100416.25;5063185;28;20046;-62
2021/06/06 07:29:53;;;;;;;4.32;3.25;;;;;;;21.57;61.54;100420.19;5058531;28;20313;-62
2021/06/06 07:32:20;;;;;;;13.82;3.50;;;;;;;21.69;60.01;100415.59;5058516;28;20024;-67
2021/06/06 07:34:47;;;;;;;5.40;3.17;;;;;;;21.81;60.52;100420.31;5063107;28;20053;-66
2021/06/06 07:37:13;;;;;;;5.05;2.85;;;;;;;21.92;60.30;100419.84;5062179;28;20033;-64
2021/06/06 07:39:40;;;;;;;8.18;3.42;;;;;;;22.03;60.63;100422.19;5067478;28;20047;-63
2021/06/06 07:42:09;;;;;;;6.03;3.30;;;;;;;22.15;61.48;100421.22;5070310;28;20040;-65
2021/06/06 07:44:35;;;;;;;6.25;3.05;;;;;;;22.24;60.26;100437.59;5069848;28;20032;-64
2021/06/06 07:47:02;;;;;;;6.05;2.75;;;;;;;22.30;58.93;100430.72;5067950;28;20324;-64
2021/06/06 07:49:27;;;;;;;3.65;2.78;;;;;;;22.29;60.05;100434.84;5070206;28;20550;-66
2021/06/06 07:51:53;;;;;;;4.60;2.80;;;;;;;22.33;58.72;100432.59;5066619;28;20020;-65
2021/06/06 07:54:18;;;;;;;4.30;2.50;;;;;;;22.38;58.96;100431.94;5062533;28;20028;-65
2021/06/06 07:56:44;;;;;;;13.90;3.22;;;;;;;22.46;60.08;100444.66;5059314;28;20024;-66
2021/06/06 07:59:09;;;;;;;7.10;2.78;;;;;;;22.55;59.83;100443.03;5059048;28;20036;-66
2021/06/06 08:01:35;;;;;;;2.53;2.33;;;;;;;22.67;60.21;100439.91;5055506;28;20025;-66
2021/06/06 08:04:00;;;;;;;5.47;2.42;;;;;;;22.72;59.34;100441.31;5054885;28;20021;-65
2021/06/06 08:06:26;;;;;;;5.25;2.63;;;;;;;22.78;57.87;100450.88;5057423;28;20404;-64
2021/06/06 08:08:52;;;;;;;4.55;2.88;;;;;;;22.85;57.14;100446.88;5055892;28;20029;-66
2021/06/06 08:11:18;;;;;;;4.13;2.58;;;;;;;22.92;57.73;100450.16;5057443;28;20025;-66
2021/06/06 08:13:44;;;;;;;2.60;2.28;;;;;;;22.99;58.11;100451.88;5057438;28;20040;-66
2021/06/06 08:16:10;;;;;;;3.30;2.10;;;;;;;23.05;56.19;100456.47;5060833;28;20052;-67
2021/06/06 08:18:39;;;;;;;3.72;2.50;;;;;;;23.11;56.85;100457.38;5059478;28;20023;-67
2021/06/06 08:21:16;;;;;;;2.65;1.92;;;;;;;23.21;56.33;100460.97;5068123;28;20024;-67
2021/06/06 08:23:42;;;;;;;4.05;2.15;;;;;;;23.25;55.77;100457.91;5062786;28;20419;-67
2021/06/06 08:26:08;;;;;;;4.82;2.30;;;;;;;23.28;54.79;100459.78;5066357;28;20024;-66
2021/06/06 08:28:35;;;;;;;4.43;1.85;;;;;;;23.23;54.87;100460.47;5070740;28;20033;-65
2021/06/06 08:31:08;;;;;;;1.80;1.70;;;;;;;23.27;54.42;100461.88;5065264;28;20028;-66
2021/06/06 08:33:35;;;;;;;12.23;2.13;;;;;;;23.31;53.85;100455.97;5075484;28;20023;-65
2021/06/06 08:36:12;;;;;;;3.10;1.88;;;;;;;23.37;54.40;100471.22;5073848;28;20447;-64
2021/06/06 08:38:38;;;;;;;16.38;1.88;;;;;;;23.36;52.49;100458.94;5071081;28;20162;-66
2021/06/06 08:41:14;;;;;;;2.15;1.80;;;;;;;23.43;54.17;100457.78;5071087;28;20040;-66
2021/06/06 08:43:53;;;;;;;6.50;1.60;;;;;;;23.50;53.14;100451.66;5060021;28;20047;-65
2021/06/06 08:46:22;;;;;;;2.55;1.80;;;;;;;23.58;52.46;100457.84;5065124;28;20036;-64
2021/06/06 08:48:48;;;;;;;2.05;1.85;;;;;;;23.67;52.98;100458.56;5061678;28;20028;-67
2021/06/06 08:51:37;;;;;;;3.65;1.80;;;;;;;23.70;52.40;100457.56;5062620;28;20159;-65
2021/06/06 08:54:30;;;;;;;4.93;1.65;;;;;;;23.77;50.99;100459.25;5077202;28;20043;-67
2021/06/06 08:57:00;;;;;;;4.68;1.60;;;;;;;23.82;50.69;100457.75;5078454;28;20363;-65
2021/06/06 08:59:36;;;;;;;2.75;1.90;;;;;;;23.85;50.60;100454.72;5074234;28;20025;-64
2021/06/06 09:02:17;;;;;;;2.63;1.80;;;;;;;23.89;50.87;100466.00;5066453;28;20035;-66
2021/06/06 09:04:42;;;;;;;3.05;1.80;;;;;;;23.93;51.07;100467.41;5069383;28;20066;-65
2021/06/06 09:07:36;;;;;;;5.60;2.10;;;;;;;23.96;51.72;100465.63;5064796;28;20017;-65
2021/06/06 09:10:27;;;;;;;1.77;1.55;;;;;;;24.07;52.82;100454.31;5064347;28;20316;-64
2021/06/06 09:12:54;;;;;;;5.32;1.65;;;;;;;24.14;52.14;100456.03;5062601;28;20033;-65
2021/06/06 09:15:22;;;;;;;3.15;1.70;;;;;;;24.20;51.55;100463.44;5068629;28;20103;-64
2021/06/06 09:17:56;;;;;;;3.28;2.10;;;;;;;24.29;51.45;100460.47;5065154;28;20029;-64
2021/06/06 09:20:21;;;;;;;2.53;1.63;;;;;;;24.30;49.97;100458.41;5069579;28;20028;-65
2021/06/06 09:22:47;;;;;;;23.05;3.80;;;;;;;24.31;49.33;100469.41;5064793;28;20400;-65
2021/06/06 09:25:28;;;;;;;3.70;1.75;;;;;;;24.34;50.17;100465.53;5068489;28;20020;-65
2021/06/06 09:28:02;;;;;;;5.63;1.98;;;;;;;24.41;51.58;100469.31;5070849;28;20021;-66
2021/06/06 09:30:27;;;;;;;2.33;1.70;;;;;;;24.50;51.15;100474.94;5064386;28;20029;-65
2021/06/06 09:33:06;;;;;;;2.83;1.70;;;;;;;24.60;51.39;100462.03;5064433;28;20412;-65
2021/06/06 09:35:35;;;;;;;24.45;2.38;;;;;;;24.65;49.91;100459.25;5073879;28;20043;-65
2021/06/06 09:38:24;;;;;;;3.00;1.75;;;;;;;24.59;49.97;100458.34;5064522;28;20072;-65
2021/06/06 09:40:51;;;;;;;3.17;1.65;;;;;;;24.59;50.50;100460.44;5063960;28;20059;-66
2021/06/06 09:43:35;;;;;;;4.43;1.85;;;;;;;24.67;51.79;100455.88;5068404;28;20023;-66
2021/06/06 09:46:17;;;;;;;5.63;2.00;;;;;;;24.79;51.83;100457.63;5061183;28;20032;-65
2021/06/06 09:48:44;;;;;;;2.75;2.10;;;;;;;24.83;49.77;100452.44;5073568;28;20017;-66
2021/06/06 09:51:30;;;;;;;5.80;2.60;;;;;;;24.88;50.04;100456.69;5069500;28;20024;-65
2021/06/06 09:54:17;;;;;;;3.83;2.20;;;;;;;24.94;50.61;100446.88;5075749;28;20382;-64
2021/06/06 09:56:51;;;;;;;4.28;1.85;;;;;;;24.98;49.40;100452.41;5073614;28;20363;-65
2021/06/06 09:59:21;;;;;;;2.85;2.05;;;;;;;25.04;51.02;100450.44;5066101;28;20028;-65
2021/06/06 10:01:59;;;;;;;2.97;2.33;;;;;;;25.02;48.19;100457.97;5058964;28;20025;-65
2021/06/06 10:04:29;;;;;;;3.22;2.13;;;;;;;24.96;48.43;100455.78;5060813;28;20529;-65
2021/06/06 10:07:23;;;;;;;2.50;2.30;;;;;;;24.87;48.55;100453.03;5058142;28;20024;-64
2021/06/06 10:09:52;;;;;;;32.40;4.00;;;;;;;24.84;48.20;100453.25;5058252;28;20025;-66
2021/06/06 10:12:32;;;;;;;2.60;2.05;;;;;;;24.86;49.09;100448.56;5059998;28;20021;-66
2021/06/06 10:15:02;;;;;;;6.20;2.22;;;;;;;24.88;48.24;100446.00;5056990;28;20025;-66
2021/06/06 10:17:36;;;;;;;2.33;2.10;;;;;;;24.85;48.65;100444.13;5057448;28;20035;-68
2021/06/06 10:20:08;;;;;;;3.88;2.72;;;;;;;24.94;49.19;100452.63;5057546;28;20024;-68
2021/06/06 10:22:38;;;;;;;5.22;2.97;;;;;;;24.93;47.86;100447.38;5062529;28;20289;-70
2021/06/06 10:25:10;;;;;;;2.60;2.37;;;;;;;24.92;47.76;100443.69;5057196;28;20128;-67
2021/06/06 10:27:59;;;;;;;2.70;2.40;;;;;;;24.92;47.98;100440.03;5057575;28;20074;-67
2021/06/06 10:30:32;;;;;;;3.60;2.30;;;;;;;24.95;47.61;100442.72;5057032;28;20030;-66
2021/06/06 10:33:33;;;;;;;2.85;2.47;;;;;;;24.96;49.78;100444.28;5057165;28;20083;-64
2021/06/06 10:35:59;;;;;;;2.37;2.17;;;;;;;24.97;48.86;100439.34;5065952;28;20427;-64
2021/06/06 10:38:25;;;;;;;5.30;2.63;;;;;;;25.06;50.40;100447.06;5056817;28;20044;-65
2021/06/06 10:40:54;;;;;;;2.70;2.30;;;;;;;25.19;50.22;100433.88;5056792;28;20029;-64
2021/06/06 10:43:32;;;;;;;31.60;3.97;;;;;;;25.23;47.47;100443.13;5059512;28;20041;-67
2021/06/06 10:46:22;;;;;;;5.53;2.80;;;;;;;25.22;47.79;100443.63;5070068;28;20103;-66
2021/06/06 10:49:01;;;;;;;4.78;2.55;;;;;;;25.17;47.68;100444.31;5060783;28;20016;-66
2021/06/06 10:51:33;;;;;;;3.78;2.72;;;;;;;25.13;47.67;100438.78;5058755;28;20029;-67
2021/06/06 10:54:07;;;;;;;4.28;2.78;;;;;;;25.11;49.32;100435.63;5069481;28;20021;-69
2021/06/06 10:56:41;;;;;;;3.63;2.78;;;;;;;25.20;50.37;100443.31;5056917;28;20036;-70
2021/06/06 10:59:08;;;;;;;3.55;2.47;;;;;;;25.19;48.46;100439.63;5059831;28;20071;-65
2021/06/06 11:01:43;;;;;;;5.05;2.97;;;;;;;25.25;49.03;100437.66;5065459;28;20021;-68
2021/06/06 11:04:10;;;;;;;6.00;3.42;;;;;;;25.26;48.14;100438.44;5060532;28;20319;-65
2021/06/06 11:06:37;;;;;;;4.28;2.90;;;;;;;25.29;48.39;100428.78;5061909;28;20413;-64
2021/06/06 11:09:05;;;;;;;6.93;3.05;;;;;;;25.34;48.00;100433.81;5056515;28;20135;-66
2021/06/06 11:11:34;;;;;;;11.55;5.45;;;;;;;25.34;48.24;100438.78;5058438;28;20036;-66
2021/06/06 11:14:15;;;;;;;4.68;3.38;;;;;;;25.37;48.16;100443.53;5064885;28;20035;-66
2021/06/06 11:16:46;;;;;;;4.95;2.80;;;;;;;25.39;48.10;100435.97;5057820;28;20556;-65
2021/06/06 11:19:20;;;;;;;4.87;2.97;;;;;;;25.43;47.94;100430.78;5068429;28;20328;-65
2021/06/06 11:21:52;;;;;;;3.67;2.97;;;;;;;25.45;48.79;100428.19;5063848;28;20035;-65
2021/06/06 11:24:43;;;;;;;5.35;2.75;;;;;;;25.47;47.71;100430.56;5063765;28;20056;-66
2021/06/06 11:27:15;;;;;;;5.05;3.42;;;;;;;25.46;48.46;100424.00;5063155;28;20032;-66
2021/06/06 11:29:40;;;;;;;4.78;2.97;;;;;;;25.44;48.43;100425.81;5065331;28;20024;-65
2021/06/06 11:32:12;;;;;;;7.03;3.40;;;;;;;25.48;48.02;100424.31;5065306;28;20028;-65
2021/06/06 11:34:40;;;;;;;3.42;2.85;;;;;;;25.49;48.85;100422.25;5074056;28;20579;-65